Time;durP1;ratioP1;P1;durP2;ratioP2;P2;SDS_P1;SDS_P2;PMS_P1;PMS_P2;Temp;Humidity;BMP_temperature;BMP_pressure;BME280_temperature;BME280_humidity;BME280_pressure;Samples;Min_cycle;Max_cycle;Signal;HPM_P1;HPM_P2
2022/06/24 00:00:15;;;;;;;22.05;4.13;;;;;;;;;;10148951;28;20049;-68
2022/06/24 00:05:11;;;;;;;15.60;3.53;;;;;;;;;;10148192;28;20055;-68
2022/06/24 00:10:13;;;;;;;12.18;3.45;;;;;;;;;;10148493;28;20110;-68
2022/06/24 00:15:09;;;;;;;17.92;3.95;;;;;;;;;;10148028;28;20055;-67
2022/06/24 00:20:27;;;;;;;19.75;4.75;;;;;;;;;;10148019;28;20059;-64
2022/06/24 00:25:25;;;;;;;19.02;3.92;;;;;;;;;;10148323;28;20053;-63
2022/06/24 00:30:19;;;;;;;21.50;5.00;;;;;;;;;;10146364;28;20080;-63
2022/06/24 00:35:16;;;;;;;20.42;4.10;;;;;;;;;;10131187;28;20048;-63
2022/06/24 00:40:09;;;;;;;19.00;4.13;;;;;;;;;;10156428;28;20068;-64
2022/06/24 00:45:09;;;;;;;23.65;4.28;;;;;;;;;;10147607;28;20040;-63
2022/06/24 00:50:07;;;;;;;15.40;5.60;;;;;;;;;;10146855;28;20064;-64
2022/06/24 00:55:01;;;;;;;17.80;4.50;;;;;;;;;;10146995;28;20106;-63
2022/06/24 00:59:56;;;;;;;27.83;4.70;;;;;;;;;;10146002;28;20059;-63
2022/06/24 01:04:50;;;;;;;28.35;6.60;;;;;;;;;;10154141;28;20044;-64
2022/06/24 01:09:44;;;;;;;21.60;4.72;;;;;;;;;;10146395;28;20128;-64
2022/06/24 01:14:38;;;;;;;24.88;5.88;;;;;;;;;;10147262;28;20068;-63
2022/06/24 01:19:36;;;;;;;17.98;5.15;;;;;;;;;;10147059;28;20554;-63
2022/06/24 01:24:30;;;;;;;23.48;5.55;;;;;;;;;;10147174;28;20090;-63
2022/06/24 01:29:26;;;;;;;26.73;6.25;;;;;;;;;;10146439;28;20412;-63
2022/06/24 01:34:21;;;;;;;34.88;10.60;;;;;;;;;;10160871;28;20424;-63
2022/06/24 01:39:14;;;;;;;23.20;5.50;;;;;;;;;;10145947;28;20048;-63
2022/06/24 01:44:08;;;;;;;31.67;5.95;;;;;;;;;;10145699;28;20048;-64
2022/06/24 01:49:02;;;;;;;21.13;6.20;;;;;;;;;;10145982;28;20048;-63
2022/06/24 01:53:55;;;;;;;21.88;5.47;;;;;;;;;;10145990;28;20052;-64
2022/06/24 01:58:50;;;;;;;21.42;5.50;;;;;;;;;;10145612;28;20059;-63
2022/06/24 02:03:47;;;;;;;25.75;5.95;;;;;;;;;;10145680;28;20049;-64
2022/06/24 02:08:42;;;;;;;34.90;5.28;;;;;;;;;;10145035;28;20463;-63
2022/06/24 02:13:37;;;;;;;35.95;8.10;;;;;;;;;;10152431;28;20052;-63
2022/06/24 02:18:33;;;;;;;22.13;5.18;;;;;;;;;;10168794;28;20053;-64
2022/06/24 02:23:27;;;;;;;23.55;5.72;;;;;;;;;;10152553;28;20417;-63
2022/06/24 02:28:21;;;;;;;21.48;6.32;;;;;;;;;;10152740;28;20072;-63
2022/06/24 02:33:15;;;;;;;27.73;7.13;;;;;;;;;;10152777;28;20048;-63
2022/06/24 02:38:09;;;;;;;22.75;7.78;;;;;;;;;;10151737;28;20052;-63
2022/06/24 02:43:31;;;;;;;25.35;5.65;;;;;;;;;;10151843;28;20488;-63
2022/06/24 02:48:26;;;;;;;24.20;6.10;;;;;;;;;;10142317;28;20051;-63
2022/06/24 02:53:21;;;;;;;20.98;6.50;;;;;;;;;;10151469;28;20061;-62
2022/06/24 02:58:15;;;;;;;18.90;5.82;;;;;;;;;;10151676;28;20106;-63
2022/06/24 03:03:11;;;;;;;23.27;5.90;;;;;;;;;;10151184;28;20582;-63
2022/06/24 03:08:06;;;;;;;22.30;6.55;;;;;;;;;;10151711;28;20048;-63
2022/06/24 03:13:01;;;;;;;16.75;5.50;;;;;;;;;;10151149;28;20070;-63
2022/06/24 03:17:55;;;;;;;17.15;5.93;;;;;;;;;;10150920;28;20058;-63
2022/06/24 03:22:49;;;;;;;34.13;7.40;;;;;;;;;;10149013;28;20071;-63
2022/06/24 03:27:43;;;;;;;37.83;8.88;;;;;;;;;;10150329;28;20128;-63
2022/06/24 03:32:37;;;;;;;21.83;6.22;;;;;;;;;;10150528;28;20127;-63
2022/06/24 03:37:36;;;;;;;19.42;7.53;;;;;;;;;;10149625;28;20048;-63
2022/06/24 03:42:31;;;;;;;30.98;6.93;;;;;;;;;;10149753;28;20044;-63
2022/06/24 03:47:26;;;;;;;19.85;6.38;;;;;;;;;;10149489;28;20460;-63
2022/06/24 03:52:20;;;;;;;28.88;7.43;;;;;;;;;;10149446;28;20114;-62
2022/06/24 03:57:13;;;;;;;30.63;6.95;;;;;;;;;;10149211;28;20492;-63
2022/06/24 04:02:08;;;;;;;28.08;7.10;;;;;;;;;;10148860;28;20060;-62
2022/06/24 04:07:02;;;;;;;22.50;7.38;;;;;;;;;;10148880;28;20524;-63
2022/06/24 04:11:56;;;;;;;19.52;6.63;;;;;;;;;;10148381;28;20048;-62
2022/06/24 04:16:50;;;;;;;24.75;6.43;;;;;;;;;;10148196;28;20087;-63
2022/06/24 04:21:44;;;;;;;20.45;7.65;;;;;;;;;;10155617;28;20079;-63
2022/06/24 04:26:39;;;;;;;21.83;5.63;;;;;;;;;;10141608;28;20552;-63
2022/06/24 04:31:37;;;;;;;24.65;7.57;;;;;;;;;;10147632;28;20079;-63
2022/06/24 04:36:31;;;;;;;22.20;6.25;;;;;;;;;;10147421;28;20052;-63
2022/06/24 04:41:26;;;;;;;24.90;7.55;;;;;;;;;;10147237;28;20135;-63
2022/06/24 04:46:21;;;;;;;20.02;5.93;;;;;;;;;;10140284;28;20063;-63
2022/06/24 04:51:16;;;;;;;18.85;5.55;;;;;;;;;;10148427;28;20468;-64
2022/06/24 04:56:10;;;;;;;15.48;6.30;;;;;;;;;;10147251;28;20056;-63
2022/06/24 05:01:03;;;;;;;26.48;5.60;;;;;;;;;;10149081;28;20048;-63
2022/06/24 05:05:57;;;;;;;24.80;6.05;;;;;;;;;;10146553;28;20044;-63
2022/06/24 05:10:52;;;;;;;26.73;6.07;;;;;;;;;;10146487;28;20136;-63
2022/06/24 05:15:45;;;;;;;23.20;6.20;;;;;;;;;;10145902;28;20127;-63
2022/06/24 05:20:39;;;;;;;23.95;4.93;;;;;;;;;;10148423;28;20057;-63
2022/06/24 05:25:33;;;;;;;18.58;5.88;;;;;;;;;;10146377;28;20702;-63
2022/06/24 05:30:32;;;;;;;29.45;5.88;;;;;;;;;;10138056;28;20076;-64
2022/06/24 05:35:26;;;;;;;17.45;5.47;;;;;;;;;;10148905;28;20090;-63
2022/06/24 05:40:20;;;;;;;17.33;5.28;;;;;;;;;;10161684;28;20472;-63
2022/06/24 05:45:15;;;;;;;19.95;6.30;;;;;;;;;;10156387;28;20039;-63
2022/06/24 05:50:10;;;;;;;23.83;7.82;;;;;;;;;;10153837;28;20064;-63
2022/06/24 05:55:05;;;;;;;17.13;5.22;;;;;;;;;;10153534;28;20053;-63
2022/06/24 05:59:59;;;;;;;32.97;5.65;;;;;;;;;;10152549;28;20068;-63
2022/06/24 06:04:55;;;;;;;29.85;6.00;;;;;;;;;;10153040;28;20072;-63
2022/06/24 06:09:49;;;;;;;28.90;5.95;;;;;;;;;;10172535;28;20074;-64
2022/06/24 06:14:44;;;;;;;29.27;5.90;;;;;;;;;;10169664;28;20115;-64
2022/06/24 06:19:39;;;;;;;27.35;4.97;;;;;;;;;;10171929;28;20049;-64
2022/06/24 06:24:32;;;;;;;11.77;3.88;;;;;;;;;;10152768;28;20037;-64
2022/06/24 06:29:26;;;;;;;19.33;4.93;;;;;;;;;;10154701;28;20460;-64
2022/06/24 06:34:20;;;;;;;15.45;5.15;;;;;;;;;;10151938;28;20084;-65
2022/06/24 06:39:13;;;;;;;21.90;4.68;;;;;;;;;;10148637;28;20471;-64
2022/06/24 06:44:07;;;;;;;22.17;5.68;;;;;;;;;;10149449;28;20132;-64
2022/06/24 06:49:01;;;;;;;20.27;4.65;;;;;;;;;;10146265;28;20131;-64
2022/06/24 06:53:55;;;;;;;17.40;4.68;;;;;;;;;;10150596;28;20159;-63
2022/06/24 06:58:49;;;;;;;12.98;3.75;;;;;;;;;;10149419;28;20489;-65
2022/06/24 07:03:43;;;;;;;19.77;4.75;;;;;;;;;;10149876;28;20052;-64
2022/06/24 07:08:37;;;;;;;13.32;3.58;;;;;;;;;;10149548;28;20087;-64
2022/06/24 07:13:38;;;;;;;14.38;4.00;;;;;;;;;;10165665;28;20123;-64
2022/06/24 07:18:31;;;;;;;16.85;3.65;;;;;;;;;;10133530;28;20044;-64
2022/06/24 07:23:26;;;;;;;23.73;5.93;;;;;;;;;;10169857;28;20105;-64
2022/06/24 07:28:19;;;;;;;34.55;6.25;;;;;;;;;;10150255;28;20059;-64
2022/06/24 07:33:14;;;;;;;29.20;6.30;;;;;;;;;;10147304;28;20053;-64
2022/06/24 07:38:09;;;;;;;20.60;4.32;;;;;;;;;;10168617;28;20458;-65
2022/06/24 07:43:02;;;;;;;23.38;5.40;;;;;;;;;;10145030;28;20048;-64
2022/06/24 07:47:57;;;;;;;26.42;5.40;;;;;;;;;;10149254;28;20115;-65
2022/06/24 07:52:51;;;;;;;15.50;3.50;;;;;;;;;;10148514;28;20058;-65
2022/06/24 07:57:45;;;;;;;16.70;2.80;;;;;;;;;;10149619;28;20052;-64
2022/06/24 08:02:39;;;;;;;22.40;3.72;;;;;;;;;;10143450;28;20075;-64
2022/06/24 08:07:33;;;;;;;14.05;3.47;;;;;;;;;;10147992;28;20389;-63
2022/06/24 08:12:27;;;;;;;12.07;2.80;;;;;;;;;;10163761;28;20402;-64
2022/06/24 08:17:22;;;;;;;11.00;2.13;;;;;;;;;;10147138;28;20076;-64
2022/06/24 08:22:15;;;;;;;6.63;1.77;;;;;;;;;;10147905;28;20443;-64
2022/06/24 08:27:12;;;;;;;4.15;1.83;;;;;;;;;;10148513;28;20040;-64
2022/06/24 08:32:07;;;;;;;9.90;1.98;;;;;;;;;;10148253;28;20045;-64
2022/06/24 08:37:01;;;;;;;10.48;1.83;;;;;;;;;;10149497;28;20135;-64
2022/06/24 08:41:57;;;;;;;10.77;2.60;;;;;;;;;;10140941;28;20056;-65
2022/06/24 08:46:52;;;;;;;8.85;1.95;;;;;;;;;;10146695;28;20044;-64
2022/06/24 08:51:49;;;;;;;7.88;1.70;;;;;;;;;;10146884;28;20072;-65
2022/06/24 08:56:42;;;;;;;;;;;;;;;;;;10140323;28;20040;-65
2022/06/24 09:01:58;;;;;;;8.55;2.42;;;;;;;;;;10139366;28;19932;-66
2022/06/24 09:06:54;;;;;;;13.32;3.15;;;;;;;;;;10136692;28;20107;-66
2022/06/24 09:11:53;;;;;;;12.07;2.15;;;;;;;;;;10145019;28;20578;-65
2022/06/24 09:16:47;;;;;;;14.38;2.72;;;;;;;;;;10158171;28;21732;-65
2022/06/24 09:21:46;;;;;;;10.88;2.45;;;;;;;;;;10139465;28;20053;-64
2022/06/24 09:26:41;;;;;;;10.00;1.95;;;;;;;;;;10146448;28;20048;-65
2022/06/24 09:31:36;;;;;;;11.88;1.83;;;;;;;;;;10146401;28;20056;-64
2022/06/24 09:36:30;;;;;;;12.18;1.30;;;;;;;;;;10146845;28;20504;-63
2022/06/24 09:41:25;;;;;;;10.85;2.38;;;;;;;;;;10142935;28;20053;-64
2022/06/24 09:46:20;;;;;;;4.63;1.42;;;;;;;;;;10145726;28;20045;-64
2022/06/24 09:51:17;;;;;;;7.60;1.92;;;;;;;;;;10133689;28;20053;-65
2022/06/24 09:56:11;;;;;;;4.70;1.58;;;;;;;;;;10145399;28;20056;-65
2022/06/24 10:01:06;;;;;;;6.93;1.30;;;;;;;;;;10145658;28;20492;-65
2022/06/24 10:06:11;;;;;;;9.77;1.90;;;;;;;;;;10168019;28;20044;-64
2022/06/24 10:11:10;;;;;;;5.18;1.38;;;;;;;;;;10154676;28;20053;-64
2022/06/24 10:16:06;;;;;;;6.15;1.75;;;;;;;;;;10152125;28;20045;-65
2022/06/24 10:21:02;;;;;;;3.80;1.27;;;;;;;;;;10144926;28;20052;-65
2022/06/24 10:25:55;;;;;;;4.38;1.10;;;;;;;;;;10144616;28;20036;-65
2022/06/24 10:30:55;;;;;;;7.63;1.40;;;;;;;;;;10143561;28;20409;-65
2022/06/24 10:36:00;;;;;;;8.75;1.10;;;;;;;;;;10151394;28;20044;-65
2022/06/24 10:40:56;;;;;;;14.30;2.58;;;;;;;;;;10170240;28;20045;-65
2022/06/24 10:46:12;;;;;;;9.68;1.30;;;;;;;;;;10162038;28;20398;-64
2022/06/24 10:51:29;;;;;;;6.30;1.17;;;;;;;;;;10152644;28;20068;-65
2022/06/24 10:56:54;;;;;;;6.63;1.52;;;;;;;;;;10071021;28;20060;-65
2022/06/24 11:01:50;;;;;;;8.02;1.75;;;;;;;;;;10055230;28;20124;-65
2022/06/24 11:07:06;;;;;;;10.98;1.58;;;;;;;;;;10077214;28;20080;-64
2022/06/24 11:11:59;;;;;;;9.13;2.57;;;;;;;;;;10083421;28;20049;-65
2022/06/24 11:16:54;;;;;;;5.47;1.10;;;;;;;;;;10094097;28;20425;-65
2022/06/24 11:21:48;;;;;;;6.82;1.40;;;;;;;;;;10091233;28;20037;-66
2022/06/24 11:27:02;;;;;;;4.68;2.13;;;;;;;;;;10077076;28;20041;-65
2022/06/24 11:31:56;;;;;;;6.35;1.20;;;;;;;;;;10080103;28;20468;-65
2022/06/24 11:36:51;;;;;;;2.58;1.45;;;;;;;;;;10094818;28;20053;-66
2022/06/24 11:41:48;;;;;;;7.63;1.63;;;;;;;;;;10091376;28;20042;-66
2022/06/24 11:46:52;;;;;;;6.10;0.95;;;;;;;;;;10096514;28;20041;-66
2022/06/24 11:51:46;;;;;;;7.82;1.10;;;;;;;;;;10110578;28;20052;-65
2022/06/24 11:56:40;;;;;;;5.45;1.13;;;;;;;;;;10175828;28;20044;-66
2022/06/24 12:01:34;;;;;;;8.02;1.35;;;;;;;;;;10143547;28;20044;-66
2022/06/24 12:06:29;;;;;;;6.47;1.20;;;;;;;;;;10149011;28;20075;-66
2022/06/24 12:11:23;;;;;;;5.82;1.33;;;;;;;;;;10153391;28;20048;-66
2022/06/24 12:16:18;;;;;;;9.23;2.50;;;;;;;;;;10146042;28;20511;-65
2022/06/24 12:21:14;;;;;;;9.73;1.48;;;;;;;;;;10147104;28;20313;-65
2022/06/24 12:26:25;;;;;;;9.27;2.22;;;;;;;;;;10158010;28;20044;-64
2022/06/24 12:31:20;;;;;;;4.93;1.20;;;;;;;;;;10162045;28;20417;-63
2022/06/24 12:36:34;;;;;;;5.00;1.27;;;;;;;;;;10155924;28;20099;-63
2022/06/24 12:41:28;;;;;;;5.80;2.50;;;;;;;;;;10159305;28;20060;-65
2022/06/24 12:50:34;;;;;;;7.55;0.80;;;;;;;;;;10156271;28;20051;-64
2022/06/24 12:51:55;;;;;;;5.35;1.20;;;;;;;;;;10169720;28;20083;-64
2022/06/24 12:56:49;;;;;;;10.55;1.55;;;;;;;;;;10157180;28;20051;-64
2022/06/24 13:01:44;;;;;;;2.47;1.08;;;;;;;;;;10145857;28;20056;-64
2022/06/24 13:06:38;;;;;;;9.15;1.23;;;;;;;;;;10144697;28;20055;-63
2022/06/24 13:11:33;;;;;;;3.03;1.00;;;;;;;;;;10139393;28;20062;-66
2022/06/24 13:16:28;;;;;;;10.25;1.80;;;;;;;;;;10142221;28;20044;-64
2022/06/24 13:21:22;;;;;;;6.45;1.42;;;;;;;;;;10144290;28;20052;-66
2022/06/24 13:26:17;;;;;;;5.25;0.95;;;;;;;;;;10143048;28;20052;-67
2022/06/24 13:31:11;;;;;;;7.07;1.30;;;;;;;;;;10145731;28;20052;-64
2022/06/24 13:36:07;;;;;;;7.67;1.20;;;;;;;;;;10144400;28;20044;-64
2022/06/24 13:41:04;;;;;;;4.55;1.17;;;;;;;;;;10163104;28;20119;-64
2022/06/24 13:45:58;;;;;;;7.03;1.77;;;;;;;;;;10146116;28;20072;-64
2022/06/24 13:50:51;;;;;;;3.55;1.10;;;;;;;;;;10145451;28;20060;-64
2022/06/24 13:55:45;;;;;;;1.83;0.60;;;;;;;;;;10144939;28;20112;-64
2022/06/24 14:00:39;;;;;;;8.43;1.50;;;;;;;;;;10145361;28;20060;-64
2022/06/24 14:05:34;;;;;;;4.18;1.27;;;;;;;;;;10146681;28;20052;-64
2022/06/24 14:10:28;;;;;;;6.90;2.05;;;;;;;;;;10148131;28;20052;-64
2022/06/24 14:15:22;;;;;;;8.20;2.22;;;;;;;;;;10149433;28;20068;-64
2022/06/24 14:20:17;;;;;;;7.57;1.92;;;;;;;;;;10152363;28;20053;-64
2022/06/24 14:25:11;;;;;;;5.78;1.13;;;;;;;;;;10152128;28;20048;-64
2022/06/24 14:30:08;;;;;;;4.80;1.13;;;;;;;;;;10149590;28;20090;-64
2022/06/24 14:35:03;;;;;;;3.83;0.93;;;;;;;;;;10154972;28;20105;-64
2022/06/24 14:40:12;;;;;;;3.17;1.30;;;;;;;;;;10153862;28;20047;-65
2022/06/24 14:45:27;;;;;;;3.95;1.65;;;;;;;;;;10154230;28;20049;-65
2022/06/24 14:50:24;;;;;;;3.28;1.00;;;;;;;;;;10150805;28;20044;-66
2022/06/24 14:55:18;;;;;;;10.32;1.85;;;;;;;;;;10149851;28;20078;-66
2022/06/24 15:00:12;;;;;;;5.50;1.10;;;;;;;;;;10152082;28;20063;-66
2022/06/24 15:05:06;;;;;;;8.23;1.45;;;;;;;;;;10146491;28;20133;-65
2022/06/24 15:10:01;;;;;;;5.35;1.30;;;;;;;;;;10146559;28;20043;-65
2022/06/24 15:14:55;;;;;;;12.90;1.75;;;;;;;;;;10150485;28;20049;-66
2022/06/24 15:19:49;;;;;;;13.05;1.83;;;;;;;;;;10159073;28;20040;-65
2022/06/24 15:24:43;;;;;;;14.77;3.28;;;;;;;;;;10159563;28;20135;-66
2022/06/24 15:29:39;;;;;;;7.25;1.58;;;;;;;;;;10150154;28;20059;-66
2022/06/24 15:34:37;;;;;;;6.97;1.90;;;;;;;;;;10162135;28;20047;-68
2022/06/24 15:39:32;;;;;;;17.73;2.93;;;;;;;;;;10177335;28;20488;-65
2022/06/24 15:44:25;;;;;;;6.97;1.25;;;;;;;;;;10152569;28;20452;-67
2022/06/24 15:49:20;;;;;;;7.45;1.17;;;;;;;;;;10149347;28;20123;-66
2022/06/24 15:54:14;;;;;;;11.07;1.88;;;;;;;;;;10149322;28;20567;-64
2022/06/24 15:59:09;;;;;;;8.85;1.30;;;;;;;;;;10149225;28;20083;-63
2022/06/24 16:04:02;;;;;;;8.82;1.38;;;;;;;;;;10153627;28;20504;-65
2022/06/24 16:08:57;;;;;;;15.57;1.95;;;;;;;;;;10148440;28;20055;-65
2022/06/24 16:13:52;;;;;;;4.50;1.52;;;;;;;;;;10149076;28;20058;-65
2022/06/24 16:18:46;;;;;;;8.32;1.02;;;;;;;;;;10148568;28;20044;-65
2022/06/24 16:23:40;;;;;;;18.98;2.95;;;;;;;;;;10148052;28;20106;-65
2022/06/24 16:28:41;;;;;;;7.97;1.25;;;;;;;;;;10147410;28;20425;-61
2022/06/24 16:33:35;;;;;;;6.13;2.05;;;;;;;;;;10154901;28;20512;-62
2022/06/24 16:38:28;;;;;;;9.10;1.80;;;;;;;;;;10147120;28;20080;-63
2022/06/24 16:43:28;;;;;;;7.60;1.30;;;;;;;;;;10144817;28;20052;-62
2022/06/24 16:48:23;;;;;;;11.43;1.73;;;;;;;;;;9988717;28;20076;-62
2022/06/24 16:53:22;;;;;;;4.07;1.33;;;;;;;;;;9984819;28;20058;-65
2022/06/24 16:58:22;;;;;;;8.02;1.92;;;;;;;;;;9985254;28;20057;-66
2022/06/24 17:03:28;;;;;;;8.38;2.65;;;;;;;;;;9992033;28;20392;-65
2022/06/24 17:08:30;;;;;;;5.05;1.58;;;;;;;;;;9984644;28;20499;-66
2022/06/24 17:13:28;;;;;;;9.57;1.60;;;;;;;;;;9993223;28;20058;-67
2022/06/24 17:18:22;;;;;;;5.32;1.50;;;;;;;;;;9985572;28;20061;-67
2022/06/24 17:23:17;;;;;;;7.22;1.35;;;;;;;;;;9984844;28;20511;-67
2022/06/24 17:28:10;;;;;;;8.48;1.75;;;;;;;;;;9987427;28;20053;-66
2022/06/24 17:33:04;;;;;;;6.03;1.90;;;;;;;;;;9987919;28;20376;-67
2022/06/24 17:37:59;;;;;;;3.25;1.25;;;;;;;;;;9987274;28;20541;-67
2022/06/24 17:42:53;;;;;;;7.32;1.67;;;;;;;;;;9996572;28;20070;-67
2022/06/24 17:47:48;;;;;;;12.48;1.95;;;;;;;;;;9995242;28;20042;-67
2022/06/24 17:52:41;;;;;;;4.45;1.48;;;;;;;;;;9994381;28;20442;-67
2022/06/24 17:57:35;;;;;;;14.57;2.38;;;;;;;;;;9994794;28;20051;-68
2022/06/24 18:02:30;;;;;;;10.13;2.00;;;;;;;;;;9994529;28;20050;-67
2022/06/24 18:07:23;;;;;;;8.20;2.08;;;;;;;;;;9994425;28;20062;-68
2022/06/24 18:12:17;;;;;;;6.65;2.00;;;;;;;;;;9992920;28;20074;-67
2022/06/24 18:17:13;;;;;;;6.30;1.95;;;;;;;;;;9993782;28;20050;-67
2022/06/24 18:22:09;;;;;;;7.32;1.90;;;;;;;;;;9993675;28;20507;-67
2022/06/24 18:27:03;;;;;;;8.27;2.75;;;;;;;;;;9991438;28;20133;-66
2022/06/24 18:31:57;;;;;;;4.90;1.63;;;;;;;;;;10010674;28;20058;-68
2022/06/24 18:36:51;;;;;;;9.52;1.85;;;;;;;;;;10004786;28;20046;-68
2022/06/24 18:41:45;;;;;;;6.13;1.40;;;;;;;;;;10006533;28;20046;-68
2022/06/24 18:46:39;;;;;;;9.77;2.10;;;;;;;;;;10013634;28;20049;-67
2022/06/24 18:51:33;;;;;;;8.35;2.55;;;;;;;;;;10009743;28;20426;-70
2022/06/24 18:56:28;;;;;;;7.28;1.50;;;;;;;;;;10017844;28;20072;-69
2022/06/24 19:01:22;;;;;;;5.90;2.67;;;;;;;;;;10008365;28;20065;-69
2022/06/24 19:06:15;;;;;;;7.65;1.63;;;;;;;;;;9994037;28;20090;-70
2022/06/24 19:11:10;;;;;;;7.80;1.92;;;;;;;;;;9974430;28;20058;-68
2022/06/24 19:16:05;;;;;;;5.60;2.63;;;;;;;;;;9969648;28;20047;-67
2022/06/24 19:21:01;;;;;;;4.38;1.77;;;;;;;;;;9981381;28;20046;-67
2022/06/24 19:25:55;;;;;;;4.60;1.88;;;;;;;;;;9973898;28;20085;-71
2022/06/24 19:30:50;;;;;;;4.93;1.60;;;;;;;;;;9986803;28;20487;-71
2022/06/24 19:35:46;;;;;;;6.35;2.42;;;;;;;;;;9977972;28;20052;-70
2022/06/24 19:40:41;;;;;;;7.65;1.90;;;;;;;;;;9975502;28;20086;-69
2022/06/24 19:45:34;;;;;;;7.38;2.60;;;;;;;;;;9981813;28;20051;-71
2022/06/24 19:50:28;;;;;;;4.97;1.80;;;;;;;;;;9979442;28;20145;-71
2022/06/24 19:55:22;;;;;;;10.77;1.88;;;;;;;;;;9968572;28;20065;-71
2022/06/24 20:00:15;;;;;;;5.72;3.03;;;;;;;;;;9977354;28;20054;-71
2022/06/24 20:10:22;;;;;;;8.00;1.63;;;;;;;;;;9987514;28;20097;-73
2022/06/24 20:15:16;;;;;;;5.88;1.65;;;;;;;;;;9975474;28;20193;-73
2022/06/24 20:20:12;;;;;;;8.52;2.65;;;;;;;;;;9993987;28;20464;-72
2022/06/24 20:25:29;;;;;;;4.20;1.58;;;;;;;;;;9987717;28;20070;-74
2022/06/24 20:30:23;;;;;;;5.03;2.40;;;;;;;;;;9990574;28;20511;-77
2022/06/24 20:35:18;;;;;;;8.43;2.30;;;;;;;;;;9990043;28;20098;-75
2022/06/24 20:40:12;;;;;;;6.80;1.98;;;;;;;;;;9988637;28;20089;-78
2022/06/24 20:45:10;;;;;;;9.00;1.80;;;;;;;;;;9989130;28;20057;-76
2022/06/24 20:50:05;;;;;;;8.37;1.90;;;;;;;;;;9988318;28;20137;-76
2022/06/24 20:55:00;;;;;;;7.32;1.90;;;;;;;;;;9985800;28;20058;-79
2022/06/24 20:59:54;;;;;;;7.55;1.70;;;;;;;;;;9992062;28;20138;-76
2022/06/24 21:04:48;;;;;;;5.30;1.73;;;;;;;;;;9988528;28;20070;-76
2022/06/24 21:09:43;;;;;;;8.93;2.47;;;;;;;;;;9986877;28;20046;-76
2022/06/24 21:14:36;;;;;;;8.05;1.77;;;;;;;;;;9986323;28;20569;-76
2022/06/24 21:19:30;;;;;;;9.82;2.78;;;;;;;;;;9987701;28;20050;-77
2022/06/24 21:24:25;;;;;;;8.48;1.52;;;;;;;;;;9986843;28;20435;-77
2022/06/24 21:29:18;;;;;;;6.47;1.80;;;;;;;;;;9989858;28;20420;-76
2022/06/24 21:34:12;;;;;;;8.32;1.90;;;;;;;;;;9987484;28;20447;-77
2022/06/24 21:39:05;;;;;;;4.75;1.92;;;;;;;;;;9987081;28;20042;-80
2022/06/24 21:44:02;;;;;;;6.22;1.70;;;;;;;;;;9987098;28;20054;-77
2022/06/24 21:48:56;;;;;;;7.00;1.80;;;;;;;;;;9987191;28;20077;-77
2022/06/24 21:53:51;;;;;;;6.68;1.70;;;;;;;;;;9986459;28;20519;-80
2022/06/24 21:58:45;;;;;;;10.02;2.60;;;;;;;;;;9987062;28;20054;-79
2022/06/24 22:03:39;;;;;;;11.52;2.67;;;;;;;;;;9986531;28;20050;-79
2022/06/24 22:08:33;;;;;;;6.35;2.63;;;;;;;;;;9983877;28;20059;-79
2022/06/24 22:13:33;;;;;;;6.68;1.80;;;;;;;;;;9986617;28;20144;-81
2022/06/24 22:18:44;;;;;;;5.75;2.13;;;;;;;;;;9984820;28;20051;-79
2022/06/24 22:23:38;;;;;;;6.63;1.80;;;;;;;;;;9987097;28;20053;-79
2022/06/24 22:28:32;;;;;;;8.85;1.75;;;;;;;;;;9998360;28;20666;-76
2022/06/24 22:33:24;;;;;;;6.50;1.70;;;;;;;;;;9992484;28;20077;-77
2022/06/24 22:38:18;;;;;;;7.45;2.30;;;;;;;;;;9994522;28;20046;-74
2022/06/24 22:43:12;;;;;;;6.65;2.10;;;;;;;;;;9980584;28;20129;-75
2022/06/24 22:48:17;;;;;;;4.88;2.03;;;;;;;;;;9980549;28;20435;-77
2022/06/24 22:53:11;;;;;;;14.23;2.72;;;;;;;;;;9981148;28;20066;-76
2022/06/24 22:58:06;;;;;;;11.60;1.70;;;;;;;;;;9983844;28;20065;-76
2022/06/24 23:03:04;;;;;;;5.57;1.70;;;;;;;;;;9983349;28;20069;-78
2022/06/24 23:07:59;;;;;;;8.75;1.98;;;;;;;;;;9982742;28;20043;-78
2022/06/24 23:12:59;;;;;;;9.27;2.22;;;;;;;;;;9985052;28;20575;-75
2022/06/24 23:17:55;;;;;;;8.07;2.05;;;;;;;;;;9970062;28;20043;-76
2022/06/24 23:22:52;;;;;;;9.60;2.22;;;;;;;;;;9980374;28;20408;-73
2022/06/24 23:27:49;;;;;;;8.95;2.50;;;;;;;;;;9984969;28;20117;-72
2022/06/24 23:32:43;;;;;;;7.72;3.40;;;;;;;;;;9976732;28;20065;-72
2022/06/24 23:37:37;;;;;;;4.13;2.05;;;;;;;;;;9991503;28;20084;-76
2022/06/24 23:42:39;;;;;;;5.85;1.88;;;;;;;;;;9977545;28;20066;-73
2022/06/24 23:47:34;;;;;;;3.85;2.08;;;;;;;;;;9980999;28;20068;-74
2022/06/24 23:52:29;;;;;;;8.07;2.35;;;;;;;;;;9969862;28;20058;-73
2022/06/24 23:57:23;;;;;;;9.57;3.00;;;;;;;;;;9978305;28;20483;-75
